sensor_id;sensor_type;location;lat;lon;timestamp;P1;durP1;ratioP1;P2;durP2;ratioP2
12554;SDS011;6343;50.868;4.700;2024-03-23T00:53:44;13.20;;;2.60;;
12554;SDS011;6343;50.868;4.700;2024-03-23T00:56:10;9.10;;;2.20;;
12554;SDS011;6343;50.868;4.700;2024-03-23T00:58:36;8.33;;;2.43;;
12554;SDS011;6343;50.868;4.700;2024-03-23T01:01:02;8.70;;;4.00;;
12554;SDS011;6343;50.868;4.700;2024-03-23T01:03:31;10.40;;;3.30;;
12554;SDS011;6343;50.868;4.700;2024-03-23T01:06:01;5.47;;;2.50;;
12554;SDS011;6343;50.868;4.700;2024-03-23T01:08:28;9.83;;;2.90;;
12554;SDS011;6343;50.868;4.700;2024-03-23T01:11:01;8.60;;;2.10;;
12554;SDS011;6343;50.868;4.700;2024-03-23T01:13:27;11.43;;;2.83;;
12554;SDS011;6343;50.868;4.700;2024-03-23T01:15:54;13.40;;;3.23;;
12554;SDS011;6343;50.868;4.700;2024-03-23T01:18:21;12.43;;;2.93;;
12554;SDS011;6343;50.868;4.700;2024-03-23T01:20:47;11.67;;;3.07;;
12554;SDS011;6343;50.868;4.700;2024-03-23T01:23:13;10.77;;;3.40;;
12554;SDS011;6343;50.868;4.700;2024-03-23T01:25:40;6.57;;;2.80;;
12554;SDS011;6343;50.868;4.700;2024-03-23T01:28:06;11.50;;;3.03;;
12554;SDS011;6343;50.868;4.700;2024-03-23T01:30:32;8.77;;;3.40;;
12554;SDS011;6343;50.868;4.700;2024-03-23T01:32:58;13.20;;;3.90;;
12554;SDS011;6343;50.868;4.700;2024-03-23T01:35:24;8.03;;;3.20;;
12554;SDS011;6343;50.868;4.700;2024-03-23T01:37:51;8.53;;;3.17;;
12554;SDS011;6343;50.868;4.700;2024-03-23T01:40:17;11.57;;;3.80;;
12554;SDS011;6343;50.868;4.700;2024-03-23T01:42:54;11.37;;;3.90;;
12554;SDS011;6343;50.868;4.700;2024-03-23T01:45:20;9.30;;;3.30;;
12554;SDS011;6343;50.868;4.700;2024-03-23T01:47:46;11.23;;;3.80;;
12554;SDS011;6343;50.868;4.700;2024-03-23T01:50:13;12.97;;;4.03;;
12554;SDS011;6343;50.868;4.700;2024-03-23T01:52:39;10.40;;;3.43;;
12554;SDS011;6343;50.868;4.700;2024-03-23T01:55:05;14.00;;;3.50;;
12554;SDS011;6343;50.868;4.700;2024-03-23T01:57:32;10.30;;;3.70;;
12554;SDS011;6343;50.868;4.700;2024-03-23T01:59:58;9.13;;;3.30;;
12554;SDS011;6343;50.868;4.700;2024-03-23T02:02:24;11.47;;;3.10;;
12554;SDS011;6343;50.868;4.700;2024-03-23T02:04:50;13.03;;;4.23;;
12554;SDS011;6343;50.868;4.700;2024-03-23T02:07:16;7.60;;;3.33;;
12554;SDS011;6343;50.868;4.700;2024-03-23T02:09:43;11.50;;;3.00;;
12554;SDS011;6343;50.868;4.700;2024-03-23T02:12:09;8.17;;;3.10;;
12554;SDS011;6343;50.868;4.700;2024-03-23T02:14:35;10.13;;;3.40;;
12554;SDS011;6343;50.868;4.700;2024-03-23T02:17:01;11.20;;;3.40;;
12554;SDS011;6343;50.868;4.700;2024-03-23T02:19:27;9.10;;;3.27;;
12554;SDS011;6343;50.868;4.700;2024-03-23T02:21:53;13.10;;;3.20;;
12554;SDS011;6343;50.868;4.700;2024-03-23T02:24:19;13.47;;;3.57;;
12554;SDS011;6343;50.868;4.700;2024-03-23T02:26:46;10.33;;;2.97;;
12554;SDS011;6343;50.868;4.700;2024-03-23T02:29:13;7.60;;;3.77;;
12554;SDS011;6343;50.868;4.700;2024-03-23T02:31:39;9.40;;;3.60;;
12554;SDS011;6343;50.868;4.700;2024-03-23T02:34:05;11.80;;;3.50;;
12554;SDS011;6343;50.868;4.700;2024-03-23T02:36:31;7.10;;;3.07;;
12554;SDS011;6343;50.868;4.700;2024-03-23T02:38:57;9.30;;;2.97;;
12554;SDS011;6343;50.868;4.700;2024-03-23T02:41:24;7.47;;;2.93;;
12554;SDS011;6343;50.868;4.700;2024-03-23T02:43:50;9.40;;;3.23;;
12554;SDS011;6343;50.868;4.700;2024-03-23T02:46:16;9.03;;;3.30;;
12554;SDS011;6343;50.868;4.700;2024-03-23T02:48:42;9.30;;;3.20;;
12554;SDS011;6343;50.868;4.700;2024-03-23T02:51:08;7.27;;;3.10;;
12554;SDS011;6343;50.868;4.700;2024-03-23T02:53:34;7.80;;;3.43;;
12554;SDS011;6343;50.868;4.700;2024-03-23T02:56:01;10.23;;;3.60;;
12554;SDS011;6343;50.868;4.700;2024-03-23T02:58:27;6.17;;;2.77;;
12554;SDS011;6343;50.868;4.700;2024-03-23T03:00:53;9.67;;;4.10;;
12554;SDS011;6343;50.868;4.700;2024-03-23T03:03:19;7.60;;;3.73;;
12554;SDS011;6343;50.868;4.700;2024-03-23T03:05:45;10.30;;;4.13;;
12554;SDS011;6343;50.868;4.700;2024-03-23T03:08:11;12.17;;;4.20;;
12554;SDS011;6343;50.868;4.700;2024-03-23T03:10:37;7.43;;;3.97;;
12554;SDS011;6343;50.868;4.700;2024-03-23T03:13:03;9.27;;;3.63;;
12554;SDS011;6343;50.868;4.700;2024-03-23T03:15:29;15.33;;;4.13;;
12554;SDS011;6343;50.868;4.700;2024-03-23T03:17:55;13.43;;;5.00;;
12554;SDS011;6343;50.868;4.700;2024-03-23T03:20:21;10.97;;;4.40;;
12554;SDS011;6343;50.868;4.700;2024-03-23T03:22:49;11.33;;;4.53;;
12554;SDS011;6343;50.868;4.700;2024-03-23T03:25:15;12.33;;;4.97;;
12554;SDS011;6343;50.868;4.700;2024-03-23T03:27:41;11.80;;;4.17;;
12554;SDS011;6343;50.868;4.700;2024-03-23T03:30:07;14.97;;;4.60;;
12554;SDS011;6343;50.868;4.700;2024-03-23T03:32:33;10.60;;;4.20;;
12554;SDS011;6343;50.868;4.700;2024-03-23T03:34:59;15.57;;;4.70;;
12554;SDS011;6343;50.868;4.700;2024-03-23T03:37:25;13.80;;;4.70;;
12554;SDS011;6343;50.868;4.700;2024-03-23T03:39:51;16.50;;;4.73;;
12554;SDS011;6343;50.868;4.700;2024-03-23T03:42:18;13.07;;;4.80;;
12554;SDS011;6343;50.868;4.700;2024-03-23T03:44:44;12.90;;;4.00;;
12554;SDS011;6343;50.868;4.700;2024-03-23T03:47:10;12.10;;;4.03;;
12554;SDS011;6343;50.868;4.700;2024-03-23T03:49:36;15.40;;;3.93;;
12554;SDS011;6343;50.868;4.700;2024-03-23T03:52:02;14.73;;;4.57;;
12554;SDS011;6343;50.868;4.700;2024-03-23T03:54:28;12.13;;;5.10;;
12554;SDS011;6343;50.868;4.700;2024-03-23T03:56:54;13.97;;;4.13;;
12554;SDS011;6343;50.868;4.700;2024-03-23T03:59:20;9.23;;;3.80;;
12554;SDS011;6343;50.868;4.700;2024-03-23T04:01:46;13.93;;;4.17;;
12554;SDS011;6343;50.868;4.700;2024-03-23T04:04:12;12.17;;;4.90;;
12554;SDS011;6343;50.868;4.700;2024-03-23T04:06:39;14.57;;;4.40;;
12554;SDS011;6343;50.868;4.700;2024-03-23T04:09:05;13.73;;;4.40;;
12554;SDS011;6343;50.868;4.700;2024-03-23T04:11:32;19.43;;;5.30;;
12554;SDS011;6343;50.868;4.700;2024-03-23T04:13:58;10.80;;;4.37;;
12554;SDS011;6343;50.868;4.700;2024-03-23T04:16:24;15.97;;;4.67;;
12554;SDS011;6343;50.868;4.700;2024-03-23T04:18:50;16.27;;;4.70;;
12554;SDS011;6343;50.868;4.700;2024-03-23T04:21:16;11.17;;;4.97;;
12554;SDS011;6343;50.868;4.700;2024-03-23T04:23:42;16.00;;;5.00;;
12554;SDS011;6343;50.868;4.700;2024-03-23T04:26:08;12.43;;;5.53;;
12554;SDS011;6343;50.868;4.700;2024-03-23T04:28:35;15.97;;;5.40;;
12554;SDS011;6343;50.868;4.700;2024-03-23T04:31:04;11.90;;;5.50;;
12554;SDS011;6343;50.868;4.700;2024-03-23T04:33:30;14.23;;;5.40;;
12554;SDS011;6343;50.868;4.700;2024-03-23T04:35:56;18.63;;;5.70;;
12554;SDS011;6343;50.868;4.700;2024-03-23T04:38:22;13.93;;;5.27;;
12554;SDS011;6343;50.868;4.700;2024-03-23T04:40:55;15.83;;;5.33;;
12554;SDS011;6343;50.868;4.700;2024-03-23T04:43:21;17.63;;;7.00;;
12554;SDS011;6343;50.868;4.700;2024-03-23T04:45:48;13.27;;;5.90;;
12554;SDS011;6343;50.868;4.700;2024-03-23T04:48:14;15.30;;;5.90;;
12554;SDS011;6343;50.868;4.700;2024-03-23T04:50:40;14.57;;;5.93;;
12554;SDS011;6343;50.868;4.700;2024-03-23T04:53:06;17.60;;;6.33;;
12554;SDS011;6343;50.868;4.700;2024-03-23T04:55:32;14.30;;;6.13;;
12554;SDS011;6343;50.868;4.700;2024-03-23T04:57:58;15.37;;;5.90;;
12554;SDS011;6343;50.868;4.700;2024-03-23T05:00:25;17.23;;;7.17;;
12554;SDS011;6343;50.868;4.700;2024-03-23T05:02:51;16.87;;;6.27;;
12554;SDS011;6343;50.868;4.700;2024-03-23T05:05:18;16.13;;;6.03;;
12554;SDS011;6343;50.868;4.700;2024-03-23T05:07:44;15.60;;;6.70;;
12554;SDS011;6343;50.868;4.700;2024-03-23T05:10:10;13.73;;;6.40;;
12554;SDS011;6343;50.868;4.700;2024-03-23T05:12:37;14.13;;;5.90;;
12554;SDS011;6343;50.868;4.700;2024-03-23T05:15:04;19.83;;;6.47;;
12554;SDS011;6343;50.868;4.700;2024-03-23T05:17:32;15.33;;;5.93;;
12554;SDS011;6343;50.868;4.700;2024-03-23T05:19:58;12.27;;;5.17;;
12554;SDS011;6343;50.868;4.700;2024-03-23T05:22:24;12.77;;;5.67;;
12554;SDS011;6343;50.868;4.700;2024-03-23T05:24:50;11.47;;;5.43;;
12554;SDS011;6343;50.868;4.700;2024-03-23T05:27:16;14.37;;;5.13;;
12554;SDS011;6343;50.868;4.700;2024-03-23T05:29:42;13.57;;;5.60;;
12554;SDS011;6343;50.868;4.700;2024-03-23T05:32:08;11.70;;;4.80;;
12554;SDS011;6343;50.868;4.700;2024-03-23T05:34:34;20.30;;;4.70;;
12554;SDS011;6343;50.868;4.700;2024-03-23T05:37:00;13.33;;;4.83;;
12554;SDS011;6343;50.868;4.700;2024-03-23T05:39:26;15.37;;;4.73;;
12554;SDS011;6343;50.868;4.700;2024-03-23T05:41:52;11.60;;;4.17;;
12554;SDS011;6343;50.868;4.700;2024-03-23T05:44:18;12.83;;;4.27;;
12554;SDS011;6343;50.868;4.700;2024-03-23T05:46:45;8.53;;;5.03;;
12554;SDS011;6343;50.868;4.700;2024-03-23T05:49:15;17.73;;;5.23;;
12554;SDS011;6343;50.868;4.700;2024-03-23T05:51:42;13.80;;;4.83;;
12554;SDS011;6343;50.868;4.700;2024-03-23T05:54:08;10.93;;;4.63;;
12554;SDS011;6343;50.868;4.700;2024-03-23T05:56:34;21.20;;;5.20;;
12554;SDS011;6343;50.868;4.700;2024-03-23T05:59:00;17.40;;;4.90;;
12554;SDS011;6343;50.868;4.700;2024-03-23T06:01:28;13.20;;;4.57;;
12554;SDS011;6343;50.868;4.700;2024-03-23T06:03:56;12.10;;;4.97;;
12554;SDS011;6343;50.868;4.700;2024-03-23T06:06:22;14.83;;;5.40;;
12554;SDS011;6343;50.868;4.700;2024-03-23T06:08:48;12.97;;;4.37;;
12554;SDS011;6343;50.868;4.700;2024-03-23T06:11:14;14.07;;;5.00;;
12554;SDS011;6343;50.868;4.700;2024-03-23T06:13:41;13.87;;;4.80;;
12554;SDS011;6343;50.868;4.700;2024-03-23T06:16:07;10.80;;;5.03;;
12554;SDS011;6343;50.868;4.700;2024-03-23T06:18:33;11.20;;;4.80;;
12554;SDS011;6343;50.868;4.700;2024-03-23T06:20:59;16.63;;;4.60;;
12554;SDS011;6343;50.868;4.700;2024-03-23T06:23:25;12.30;;;5.03;;
12554;SDS011;6343;50.868;4.700;2024-03-23T06:25:51;12.43;;;4.53;;
12554;SDS011;6343;50.868;4.700;2024-03-23T06:28:17;9.50;;;3.90;;
12554;SDS011;6343;50.868;4.700;2024-03-23T06:30:43;13.30;;;4.80;;
12554;SDS011;6343;50.868;4.700;2024-03-23T06:33:09;9.50;;;4.20;;
12554;SDS011;6343;50.868;4.700;2024-03-23T06:35:35;11.40;;;3.70;;
12554;SDS011;6343;50.868;4.700;2024-03-23T06:38:01;11.40;;;4.97;;
12554;SDS011;6343;50.868;4.700;2024-03-23T06:40:27;15.37;;;4.00;;
12554;SDS011;6343;50.868;4.700;2024-03-23T06:42:53;13.13;;;4.40;;
12554;SDS011;6343;50.868;4.700;2024-03-23T06:45:20;11.67;;;3.60;;
12554;SDS011;6343;50.868;4.700;2024-03-23T06:47:48;7.07;;;3.80;;
12554;SDS011;6343;50.868;4.700;2024-03-23T06:50:15;11.20;;;4.63;;
12554;SDS011;6343;50.868;4.700;2024-03-23T06:52:41;12.60;;;3.80;;
12554;SDS011;6343;50.868;4.700;2024-03-23T06:55:07;13.30;;;4.27;;
12554;SDS011;6343;50.868;4.700;2024-03-23T06:57:33;13.63;;;4.27;;
12554;SDS011;6343;50.868;4.700;2024-03-23T06:59:59;12.83;;;3.90;;
12554;SDS011;6343;50.868;4.700;2024-03-23T07:02:25;13.00;;;3.33;;
12554;SDS011;6343;50.868;4.700;2024-03-23T07:04:51;9.53;;;3.50;;
12554;SDS011;6343;50.868;4.700;2024-03-23T07:07:18;14.10;;;3.43;;
12554;SDS011;6343;50.868;4.700;2024-03-23T07:09:44;12.43;;;3.50;;
12554;SDS011;6343;50.868;4.700;2024-03-23T07:12:10;7.93;;;2.97;;
12554;SDS011;6343;50.868;4.700;2024-03-23T07:14:36;10.73;;;2.70;;
12554;SDS011;6343;50.868;4.700;2024-03-23T07:17:02;8.90;;;2.50;;
12554;SDS011;6343;50.868;4.700;2024-03-23T07:19:28;12.97;;;3.20;;
12554;SDS011;6343;50.868;4.700;2024-03-23T07:21:54;7.70;;;2.67;;
12554;SDS011;6343;50.868;4.700;2024-03-23T07:24:21;11.90;;;2.93;;
12554;SDS011;6343;50.868;4.700;2024-03-23T07:26:47;11.33;;;2.90;;
12554;SDS011;6343;50.868;4.700;2024-03-23T07:29:15;10.03;;;3.03;;
12554;SDS011;6343;50.868;4.700;2024-03-23T07:31:41;9.30;;;2.83;;
12554;SDS011;6343;50.868;4.700;2024-03-23T07:34:07;9.27;;;2.67;;
12554;SDS011;6343;50.868;4.700;2024-03-23T07:36:33;7.50;;;2.33;;
12554;SDS011;6343;50.868;4.700;2024-03-23T07:38:59;7.03;;;2.47;;
12554;SDS011;6343;50.868;4.700;2024-03-23T07:41:25;11.23;;;2.40;;
12554;SDS011;6343;50.868;4.700;2024-03-23T07:43:53;7.33;;;2.23;;
12554;SDS011;6343;50.868;4.700;2024-03-23T07:46:20;7.27;;;2.23;;
12554;SDS011;6343;50.868;4.700;2024-03-23T07:48:46;8.80;;;2.10;;
12554;SDS011;6343;50.868;4.700;2024-03-23T07:51:22;7.30;;;2.40;;
12554;SDS011;6343;50.868;4.700;2024-03-23T07:53:48;9.40;;;2.00;;
12554;SDS011;6343;50.868;4.700;2024-03-23T07:56:14;5.17;;;1.70;;
12554;SDS011;6343;50.868;4.700;2024-03-23T07:58:41;5.63;;;2.23;;
12554;SDS011;6343;50.868;4.700;2024-03-23T08:01:11;5.70;;;2.20;;
12554;SDS011;6343;50.868;4.700;2024-03-23T08:03:39;6.03;;;1.70;;
12554;SDS011;6343;50.868;4.700;2024-03-23T08:06:09;6.43;;;1.93;;
12554;SDS011;6343;50.868;4.700;2024-03-23T08:08:35;4.73;;;2.00;;
12554;SDS011;6343;50.868;4.700;2024-03-23T08:11:02;6.07;;;2.17;;
12554;SDS011;6343;50.868;4.700;2024-03-23T08:13:28;7.30;;;2.40;;
12554;SDS011;6343;50.868;4.700;2024-03-23T08:16:02;6.83;;;2.33;;
12554;SDS011;6343;50.868;4.700;2024-03-23T08:18:28;9.53;;;2.47;;
12554;SDS011;6343;50.868;4.700;2024-03-23T08:20:55;10.03;;;2.57;;
12554;SDS011;6343;50.868;4.700;2024-03-23T08:23:22;6.57;;;2.73;;
12554;SDS011;6343;50.868;4.700;2024-03-23T08:25:48;9.43;;;2.90;;
12554;SDS011;6343;50.868;4.700;2024-03-23T08:28:14;13.37;;;3.93;;
12554;SDS011;6343;50.868;4.700;2024-03-23T08:30:40;7.77;;;3.37;;
12554;SDS011;6343;50.868;4.700;2024-03-23T08:33:06;10.67;;;3.00;;
12554;SDS011;6343;50.868;4.700;2024-03-23T08:35:32;9.07;;;2.37;;
12554;SDS011;6343;50.868;4.700;2024-03-23T08:37:59;11.00;;;2.83;;
12554;SDS011;6343;50.868;4.700;2024-03-23T08:40:25;8.53;;;2.50;;
12554;SDS011;6343;50.868;4.700;2024-03-23T08:42:51;10.90;;;3.00;;
12554;SDS011;6343;50.868;4.700;2024-03-23T08:45:17;11.73;;;2.37;;
12554;SDS011;6343;50.868;4.700;2024-03-23T08:47:44;8.47;;;2.83;;
12554;SDS011;6343;50.868;4.700;2024-03-23T08:50:10;9.00;;;2.27;;
12554;SDS011;6343;50.868;4.700;2024-03-23T08:52:36;7.37;;;2.67;;
12554;SDS011;6343;50.868;4.700;2024-03-23T08:55:02;13.13;;;3.87;;
12554;SDS011;6343;50.868;4.700;2024-03-23T08:57:28;6.30;;;2.10;;
12554;SDS011;6343;50.868;4.700;2024-03-23T08:59:54;8.73;;;2.57;;
12554;SDS011;6343;50.868;4.700;2024-03-23T09:02:20;13.23;;;3.00;;
12554;SDS011;6343;50.868;4.700;2024-03-23T09:04:46;6.47;;;2.70;;
12554;SDS011;6343;50.868;4.700;2024-03-23T09:07:12;10.97;;;3.50;;
12554;SDS011;6343;50.868;4.700;2024-03-23T09:09:39;15.10;;;2.70;;
12554;SDS011;6343;50.868;4.700;2024-03-23T09:12:05;13.23;;;3.33;;
12554;SDS011;6343;50.868;4.700;2024-03-23T09:14:32;8.17;;;2.30;;
12554;SDS011;6343;50.868;4.700;2024-03-23T09:16:58;10.10;;;2.40;;
12554;SDS011;6343;50.868;4.700;2024-03-23T09:19:26;9.57;;;2.73;;
12554;SDS011;6343;50.868;4.700;2024-03-23T09:21:52;10.73;;;2.70;;
12554;SDS011;6343;50.868;4.700;2024-03-23T09:24:18;13.90;;;2.90;;
12554;SDS011;6343;50.868;4.700;2024-03-23T09:26:44;5.90;;;2.60;;
12554;SDS011;6343;50.868;4.700;2024-03-23T09:29:10;14.60;;;2.50;;
12554;SDS011;6343;50.868;4.700;2024-03-23T09:31:36;10.07;;;2.40;;
12554;SDS011;6343;50.868;4.700;2024-03-23T09:34:03;10.10;;;2.40;;
12554;SDS011;6343;50.868;4.700;2024-03-23T09:36:29;7.20;;;2.20;;
12554;SDS011;6343;50.868;4.700;2024-03-23T09:38:56;9.17;;;2.47;;
12554;SDS011;6343;50.868;4.700;2024-03-23T09:41:22;7.53;;;1.90;;
12554;SDS011;6343;50.868;4.700;2024-03-23T09:43:52;6.90;;;1.87;;
12554;SDS011;6343;50.868;4.700;2024-03-23T09:46:18;16.93;;;2.37;;
12554;SDS011;6343;50.868;4.700;2024-03-23T09:48:44;10.23;;;2.43;;
12554;SDS011;6343;50.868;4.700;2024-03-23T09:51:12;11.93;;;2.27;;
12554;SDS011;6343;50.868;4.700;2024-03-23T09:53:38;8.50;;;2.40;;
12554;SDS011;6343;50.868;4.700;2024-03-23T09:56:04;7.73;;;1.90;;
12554;SDS011;6343;50.868;4.700;2024-03-23T09:58:30;7.77;;;2.40;;
12554;SDS011;6343;50.868;4.700;2024-03-23T10:00:59;5.80;;;2.43;;
12554;SDS011;6343;50.868;4.700;2024-03-23T10:03:25;8.33;;;2.67;;
12554;SDS011;6343;50.868;4.700;2024-03-23T10:06:01;8.33;;;2.37;;
12554;SDS011;6343;50.868;4.700;2024-03-23T10:08:28;6.70;;;2.10;;
12554;SDS011;6343;50.868;4.700;2024-03-23T10:10:55;8.03;;;3.53;;
12554;SDS011;6343;50.868;4.700;2024-03-23T10:13:25;6.80;;;2.57;;
12554;SDS011;6343;50.868;4.700;2024-03-23T10:15:54;7.13;;;2.47;;
12554;SDS011;6343;50.868;4.700;2024-03-23T10:18:21;7.03;;;1.87;;
12554;SDS011;6343;50.868;4.700;2024-03-23T10:20:50;4.77;;;2.27;;
12554;SDS011;6343;50.868;4.700;2024-03-23T10:23:17;6.07;;;2.20;;
12554;SDS011;6343;50.868;4.700;2024-03-23T10:25:43;6.00;;;1.73;;
12554;SDS011;6343;50.868;4.700;2024-03-23T10:28:10;7.90;;;2.40;;
12554;SDS011;6343;50.868;4.700;2024-03-23T10:30:37;8.33;;;2.13;;
12554;SDS011;6343;50.868;4.700;2024-03-23T10:35:36;6.87;;;1.93;;
12554;SDS011;6343;50.868;4.700;2024-03-23T10:38:05;6.90;;;2.20;;
12554;SDS011;6343;50.868;4.700;2024-03-23T10:40:33;10.20;;;2.10;;
12554;SDS011;6343;50.868;4.700;2024-03-23T10:43:00;8.13;;;2.10;;
12554;SDS011;6343;50.868;4.700;2024-03-23T10:45:26;8.47;;;2.33;;
12554;SDS011;6343;50.868;4.700;2024-03-23T10:47:52;8.70;;;2.03;;
12554;SDS011;6343;50.868;4.700;2024-03-23T10:50:18;6.27;;;1.93;;
12554;SDS011;6343;50.868;4.700;2024-03-23T10:52:46;9.13;;;1.77;;
12554;SDS011;6343;50.868;4.700;2024-03-23T10:55:16;7.93;;;1.87;;
12554;SDS011;6343;50.868;4.700;2024-03-23T11:00:09;5.03;;;1.60;;
12554;SDS011;6343;50.868;4.700;2024-03-23T11:02:36;7.40;;;1.67;;
12554;SDS011;6343;50.868;4.700;2024-03-23T11:05:06;5.37;;;1.67;;
12554;SDS011;6343;50.868;4.700;2024-03-23T11:07:52;6.53;;;1.83;;
12554;SDS011;6343;50.868;4.700;2024-03-23T11:15:03;6.17;;;1.80;;
12554;SDS011;6343;50.868;4.700;2024-03-23T11:17:30;5.30;;;1.30;;
12554;SDS011;6343;50.868;4.700;2024-03-23T11:19:57;5.20;;;1.37;;
12554;SDS011;6343;50.868;4.700;2024-03-23T11:25:15;6.20;;;1.60;;
12554;SDS011;6343;50.868;4.700;2024-03-23T11:30:11;7.60;;;1.50;;
12554;SDS011;6343;50.868;4.700;2024-03-23T11:32:38;2.80;;;1.17;;
12554;SDS011;6343;50.868;4.700;2024-03-23T11:35:04;25.93;;;2.20;;
12554;SDS011;6343;50.868;4.700;2024-03-23T11:37:30;7.33;;;1.40;;
12554;SDS011;6343;50.868;4.700;2024-03-23T11:39:56;4.67;;;1.40;;
12554;SDS011;6343;50.868;4.700;2024-03-23T11:42:22;5.60;;;1.47;;
12554;SDS011;6343;50.868;4.700;2024-03-23T11:44:48;6.70;;;1.53;;
12554;SDS011;6343;50.868;4.700;2024-03-23T11:47:14;2.80;;;1.30;;
12554;SDS011;6343;50.868;4.700;2024-03-23T11:49:40;4.47;;;1.30;;
12554;SDS011;6343;50.868;4.700;2024-03-23T11:52:06;10.30;;;1.80;;
12554;SDS011;6343;50.868;4.700;2024-03-23T11:54:33;3.23;;;1.40;;
12554;SDS011;6343;50.868;4.700;2024-03-23T11:56:59;3.70;;;1.37;;
12554;SDS011;6343;50.868;4.700;2024-03-23T12:02:00;5.10;;;1.30;;
12554;SDS011;6343;50.868;4.700;2024-03-23T12:04:29;2.63;;;1.33;;
12554;SDS011;6343;50.868;4.700;2024-03-23T12:11:51;5.03;;;1.40;;
12554;SDS011;6343;50.868;4.700;2024-03-23T12:14:17;5.60;;;1.27;;
12554;SDS011;6343;50.868;4.700;2024-03-23T12:16:43;5.33;;;1.23;;
12554;SDS011;6343;50.868;4.700;2024-03-23T12:19:09;3.03;;;1.20;;
12554;SDS011;6343;50.868;4.700;2024-03-23T12:21:36;3.93;;;1.30;;
12554;SDS011;6343;50.868;4.700;2024-03-23T12:24:02;3.90;;;1.00;;
12554;SDS011;6343;50.868;4.700;2024-03-23T12:26:28;5.27;;;1.43;;
12554;SDS011;6343;50.868;4.700;2024-03-23T12:28:54;5.77;;;1.50;;
12554;SDS011;6343;50.868;4.700;2024-03-23T12:31:20;6.07;;;1.20;;
12554;SDS011;6343;50.868;4.700;2024-03-23T12:33:46;7.23;;;1.40;;
12554;SDS011;6343;50.868;4.700;2024-03-23T12:36:12;3.37;;;1.10;;
12554;SDS011;6343;50.868;4.700;2024-03-23T12:38:38;2.57;;;1.30;;
12554;SDS011;6343;50.868;4.700;2024-03-23T12:41:04;5.17;;;1.43;;
12554;SDS011;6343;50.868;4.700;2024-03-23T12:43:30;9.13;;;1.70;;
12554;SDS011;6343;50.868;4.700;2024-03-23T12:45:56;4.20;;;1.20;;
12554;SDS011;6343;50.868;4.700;2024-03-23T12:48:22;3.57;;;1.40;;
12554;SDS011;6343;50.868;4.700;2024-03-23T12:50:48;5.33;;;1.53;;
12554;SDS011;6343;50.868;4.700;2024-03-23T12:53:14;3.80;;;1.40;;
12554;SDS011;6343;50.868;4.700;2024-03-23T12:55:42;3.80;;;1.20;;
12554;SDS011;6343;50.868;4.700;2024-03-23T12:58:08;3.13;;;1.20;;
12554;SDS011;6343;50.868;4.700;2024-03-23T13:00:34;5.70;;;1.40;;
12554;SDS011;6343;50.868;4.700;2024-03-23T13:03:00;8.13;;;1.20;;
12554;SDS011;6343;50.868;4.700;2024-03-23T13:05:26;4.60;;;1.23;;
12554;SDS011;6343;50.868;4.700;2024-03-23T13:07:52;6.50;;;1.43;;
12554;SDS011;6343;50.868;4.700;2024-03-23T13:10:18;6.33;;;1.40;;
12554;SDS011;6343;50.868;4.700;2024-03-23T13:12:44;8.33;;;1.63;;
12554;SDS011;6343;50.868;4.700;2024-03-23T13:15:10;5.60;;;1.40;;
12554;SDS011;6343;50.868;4.700;2024-03-23T13:17:36;5.83;;;2.23;;
12554;SDS011;6343;50.868;4.700;2024-03-23T13:20:02;6.13;;;1.60;;
12554;SDS011;6343;50.868;4.700;2024-03-23T13:22:29;4.20;;;1.40;;
12554;SDS011;6343;50.868;4.700;2024-03-23T13:24:55;5.27;;;1.57;;
12554;SDS011;6343;50.868;4.700;2024-03-23T13:27:21;6.30;;;1.23;;
12554;SDS011;6343;50.868;4.700;2024-03-23T13:29:47;2.23;;;1.13;;
12554;SDS011;6343;50.868;4.700;2024-03-23T13:32:13;12.10;;;1.70;;
12554;SDS011;6343;50.868;4.700;2024-03-23T13:34:39;2.50;;;1.10;;
12554;SDS011;6343;50.868;4.700;2024-03-23T13:37:05;2.57;;;1.30;;
12554;SDS011;6343;50.868;4.700;2024-03-23T13:39:32;7.33;;;1.13;;
12554;SDS011;6343;50.868;4.700;2024-03-23T13:41:58;4.20;;;1.20;;
12554;SDS011;6343;50.868;4.700;2024-03-23T13:44:24;6.33;;;1.20;;
12554;SDS011;6343;50.868;4.700;2024-03-23T13:46:51;3.57;;;1.30;;
12554;SDS011;6343;50.868;4.700;2024-03-23T13:49:29;2.97;;;1.00;;
12554;SDS011;6343;50.868;4.700;2024-03-23T13:51:57;2.73;;;0.80;;
12554;SDS011;6343;50.868;4.700;2024-03-23T13:54:24;5.07;;;1.07;;
12554;SDS011;6343;50.868;4.700;2024-03-23T13:56:51;2.73;;;1.00;;
12554;SDS011;6343;50.868;4.700;2024-03-23T13:59:17;3.27;;;1.13;;
12554;SDS011;6343;50.868;4.700;2024-03-23T14:01:43;3.27;;;1.03;;
12554;SDS011;6343;50.868;4.700;2024-03-23T14:04:10;2.60;;;1.00;;
12554;SDS011;6343;50.868;4.700;2024-03-23T14:06:37;4.53;;;1.00;;
12554;SDS011;6343;50.868;4.700;2024-03-23T14:09:03;68.03;;;3.93;;
12554;SDS011;6343;50.868;4.700;2024-03-23T14:11:29;4.03;;;1.73;;
12554;SDS011;6343;50.868;4.700;2024-03-23T14:13:56;2.83;;;1.03;;
12554;SDS011;6343;50.868;4.700;2024-03-23T14:16:22;3.27;;;1.00;;
12554;SDS011;6343;50.868;4.700;2024-03-23T14:18:48;4.33;;;1.37;;
12554;SDS011;6343;50.868;4.700;2024-03-23T14:21:14;3.07;;;1.50;;
12554;SDS011;6343;50.868;4.700;2024-03-23T14:23:40;3.87;;;1.20;;
12554;SDS011;6343;50.868;4.700;2024-03-23T14:26:06;4.90;;;1.10;;
12554;SDS011;6343;50.868;4.700;2024-03-23T14:28:33;6.83;;;1.43;;
12554;SDS011;6343;50.868;4.700;2024-03-23T14:31:00;4.17;;;1.23;;
12554;SDS011;6343;50.868;4.700;2024-03-23T14:33:26;5.00;;;1.00;;
12554;SDS011;6343;50.868;4.700;2024-03-23T14:35:55;5.93;;;1.37;;
12554;SDS011;6343;50.868;4.700;2024-03-23T14:38:22;7.27;;;1.63;;
12554;SDS011;6343;50.868;4.700;2024-03-23T14:40:48;2.77;;;1.40;;
12554;SDS011;6343;50.868;4.700;2024-03-23T14:43:14;2.90;;;1.03;;
12554;SDS011;6343;50.868;4.700;2024-03-23T14:45:48;3.63;;;1.37;;
12554;SDS011;6343;50.868;4.700;2024-03-23T14:48:26;3.33;;;1.20;;
12554;SDS011;6343;50.868;4.700;2024-03-23T14:50:56;3.27;;;1.50;;
12554;SDS011;6343;50.868;4.700;2024-03-23T14:53:22;4.63;;;1.30;;
12554;SDS011;6343;50.868;4.700;2024-03-23T14:55:48;3.37;;;1.40;;
12554;SDS011;6343;50.868;4.700;2024-03-23T14:58:14;6.13;;;1.27;;
12554;SDS011;6343;50.868;4.700;2024-03-23T15:00:40;5.17;;;1.40;;
12554;SDS011;6343;50.868;4.700;2024-03-23T15:03:06;5.33;;;1.73;;
12554;SDS011;6343;50.868;4.700;2024-03-23T15:05:32;5.80;;;1.87;;
12554;SDS011;6343;50.868;4.700;2024-03-23T15:07:58;2.17;;;1.20;;
12554;SDS011;6343;50.868;4.700;2024-03-23T15:10:24;7.93;;;1.47;;
12554;SDS011;6343;50.868;4.700;2024-03-23T15:12:51;2.90;;;1.23;;
12554;SDS011;6343;50.868;4.700;2024-03-23T15:15:17;3.70;;;1.57;;
12554;SDS011;6343;50.868;4.700;2024-03-23T15:17:43;3.83;;;1.20;;
12554;SDS011;6343;50.868;4.700;2024-03-23T15:20:10;4.83;;;1.20;;
12554;SDS011;6343;50.868;4.700;2024-03-23T15:22:37;5.73;;;1.67;;
12554;SDS011;6343;50.868;4.700;2024-03-23T15:25:03;3.20;;;1.50;;
12554;SDS011;6343;50.868;4.700;2024-03-23T15:27:29;5.33;;;1.33;;
12554;SDS011;6343;50.868;4.700;2024-03-23T15:29:58;4.37;;;1.20;;
12554;SDS011;6343;50.868;4.700;2024-03-23T15:32:24;4.83;;;1.33;;
12554;SDS011;6343;50.868;4.700;2024-03-23T15:34:50;3.97;;;1.50;;
12554;SDS011;6343;50.868;4.700;2024-03-23T15:37:17;4.83;;;1.40;;
12554;SDS011;6343;50.868;4.700;2024-03-23T15:39:43;5.30;;;1.33;;
12554;SDS011;6343;50.868;4.700;2024-03-23T15:42:09;3.90;;;1.57;;
12554;SDS011;6343;50.868;4.700;2024-03-23T15:44:35;4.33;;;1.27;;
12554;SDS011;6343;50.868;4.700;2024-03-23T15:47:01;3.07;;;1.47;;
12554;SDS011;6343;50.868;4.700;2024-03-23T15:49:27;6.37;;;1.47;;
12554;SDS011;6343;50.868;4.700;2024-03-23T15:51:54;5.90;;;1.87;;
12554;SDS011;6343;50.868;4.700;2024-03-23T15:54:20;3.70;;;1.50;;
12554;SDS011;6343;50.868;4.700;2024-03-23T15:56:47;8.67;;;2.03;;
12554;SDS011;6343;50.868;4.700;2024-03-23T15:59:13;7.10;;;1.73;;
12554;SDS011;6343;50.868;4.700;2024-03-23T16:01:39;5.80;;;1.70;;
12554;SDS011;6343;50.868;4.700;2024-03-23T16:04:05;3.83;;;1.40;;
12554;SDS011;6343;50.868;4.700;2024-03-23T16:06:31;3.37;;;1.20;;